sensor_id;sensor_type;location;lat;lon;timestamp;pressure;altitude;pressure_sealevel;temperature;humidity
19797;BME280;10058;57.654;12.044;2023-01-28T00:01:09;101978.41;;;2.91;100.00
19797;BME280;10058;57.654;12.044;2023-01-28T00:03:35;101963.31;;;2.87;100.00
19797;BME280;10058;57.654;12.044;2023-01-28T00:06:11;101953.53;;;2.96;100.00
19797;BME280;10058;57.654;12.044;2023-01-28T00:08:36;101948.91;;;2.92;100.00
19797;BME280;10058;57.654;12.044;2023-01-28T00:11:02;101944.91;;;2.97;100.00
19797;BME280;10058;57.654;12.044;2023-01-28T00:13:28;101949.94;;;2.94;100.00
19797;BME280;10058;57.654;12.044;2023-01-28T00:15:54;101946.97;;;3.01;100.00
19797;BME280;10058;57.654;12.044;2023-01-28T00:18:20;101936.78;;;3.04;100.00
19797;BME280;10058;57.654;12.044;2023-01-28T00:20:54;101944.00;;;2.96;100.00
19797;BME280;10058;57.654;12.044;2023-01-28T00:23:19;101935.75;;;3.02;100.00
19797;BME280;10058;57.654;12.044;2023-01-28T00:25:44;101923.41;;;3.11;100.00
19797;BME280;10058;57.654;12.044;2023-01-28T00:28:09;101920.63;;;2.98;100.00
19797;BME280;10058;57.654;12.044;2023-01-28T00:30:34;101920.63;;;2.98;100.00
19797;BME280;10058;57.654;12.044;2023-01-28T00:33:01;101912.47;;;3.05;100.00
19797;BME280;10058;57.654;12.044;2023-01-28T00:35:26;101884.97;;;2.87;100.00
19797;BME280;10058;57.654;12.044;2023-01-28T00:37:51;101918.19;;;3.11;100.00
19797;BME280;10058;57.654;12.044;2023-01-28T00:40:16;101900.88;;;3.13;100.00
19797;BME280;10058;57.654;12.044;2023-01-28T00:42:41;101901.25;;;3.18;100.00
19797;BME280;10058;57.654;12.044;2023-01-28T00:45:07;101904.53;;;3.15;100.00
19797;BME280;10058;57.654;12.044;2023-01-28T00:47:32;101864.06;;;2.87;100.00
19797;BME280;10058;57.654;12.044;2023-01-28T00:49:57;101907.94;;;3.14;100.00
19797;BME280;10058;57.654;12.044;2023-01-28T00:52:22;101899.53;;;3.18;100.00
19797;BME280;10058;57.654;12.044;2023-01-28T00:54:48;101901.13;;;3.16;100.00
19797;BME280;10058;57.654;12.044;2023-01-28T00:57:13;101886.16;;;3.25;100.00
19797;BME280;10058;57.654;12.044;2023-01-28T00:59:38;101873.31;;;3.28;100.00
19797;BME280;10058;57.654;12.044;2023-01-28T01:02:03;101873.97;;;3.37;100.00
19797;BME280;10058;57.654;12.044;2023-01-28T01:04:36;101863.84;;;3.30;100.00
19797;BME280;10058;57.654;12.044;2023-01-28T01:07:01;101863.66;;;3.27;100.00
19797;BME280;10058;57.654;12.044;2023-01-28T01:09:26;101866.03;;;3.24;100.00
19797;BME280;10058;57.654;12.044;2023-01-28T01:11:51;101866.84;;;3.23;100.00
19797;BME280;10058;57.654;12.044;2023-01-28T01:14:16;101866.38;;;3.17;100.00
19797;BME280;10058;57.654;12.044;2023-01-28T01:16:42;101852.75;;;3.21;100.00
19797;BME280;10058;57.654;12.044;2023-01-28T01:19:07;101840.81;;;3.13;100.00
19797;BME280;10058;57.654;12.044;2023-01-28T01:21:33;101843.22;;;3.10;100.00
19797;BME280;10058;57.654;12.044;2023-01-28T01:23:58;101835.69;;;3.03;100.00
19797;BME280;10058;57.654;12.044;2023-01-28T01:26:23;101841.81;;;3.15;100.00
19797;BME280;10058;57.654;12.044;2023-01-28T01:28:51;101845.47;;;3.17;100.00
19797;BME280;10058;57.654;12.044;2023-01-28T01:31:18;101855.03;;;3.28;100.00
19797;BME280;10058;57.654;12.044;2023-01-28T01:33:44;101843.41;;;3.36;100.00
19797;BME280;10058;57.654;12.044;2023-01-28T01:36:10;101828.91;;;3.28;100.00
19797;BME280;10058;57.654;12.044;2023-01-28T01:38:36;101825.69;;;3.32;100.00
19797;BME280;10058;57.654;12.044;2023-01-28T01:41:02;101832.97;;;3.36;100.00
19797;BME280;10058;57.654;12.044;2023-01-28T01:46:32;101823.19;;;3.45;100.00
19797;BME280;10058;57.654;12.044;2023-01-28T01:49:01;101808.66;;;3.37;100.00
19797;BME280;10058;57.654;12.044;2023-01-28T01:51:30;101814.34;;;3.43;100.00
19797;BME280;10058;57.654;12.044;2023-01-28T01:53:57;101817.97;;;3.45;100.00
19797;BME280;10058;57.654;12.044;2023-01-28T01:56:24;101825.47;;;3.41;100.00
19797;BME280;10058;57.654;12.044;2023-01-28T01:58:52;101823.19;;;3.45;100.00
19797;BME280;10058;57.654;12.044;2023-01-28T02:01:19;101821.38;;;3.44;100.00
19797;BME280;10058;57.654;12.044;2023-01-28T02:03:49;101817.75;;;3.42;100.00
19797;BME280;10058;57.654;12.044;2023-01-28T02:06:17;101817.38;;;3.49;100.00
19797;BME280;10058;57.654;12.044;2023-01-28T02:08:42;101812.75;;;3.45;100.00
19797;BME280;10058;57.654;12.044;2023-01-28T02:11:09;101816.34;;;3.47;100.00
19797;BME280;10058;57.654;12.044;2023-01-28T02:13:41;101814.34;;;3.43;100.00
19797;BME280;10058;57.654;12.044;2023-01-28T02:16:07;101805.09;;;3.48;100.00
19797;BME280;10058;57.654;12.044;2023-01-28T02:18:33;101804.53;;;3.53;100.00
19797;BME280;10058;57.654;12.044;2023-01-28T02:22:00;101795.25;;;3.44;100.00
19797;BME280;10058;57.654;12.044;2023-01-28T02:27:25;101780.78;;;3.49;100.00
19797;BME280;10058;57.654;12.044;2023-01-28T02:29:33;101757.03;;;3.46;100.00
19797;BME280;10058;57.654;12.044;2023-01-28T02:32:08;101780.88;;;3.51;100.00
19797;BME280;10058;57.654;12.044;2023-01-28T02:37:08;101773.03;;;3.63;100.00
19797;BME280;10058;57.654;12.044;2023-01-28T02:39:42;101777.03;;;3.58;100.00
19797;BME280;10058;57.654;12.044;2023-01-28T02:42:09;101768.59;;;3.62;100.00
19797;BME280;10058;57.654;12.044;2023-01-28T02:44:35;101772.00;;;3.61;100.00
19797;BME280;10058;57.654;12.044;2023-01-28T02:47:00;101765.19;;;3.63;100.00
19797;BME280;10058;57.654;12.044;2023-01-28T02:49:51;101756.34;;;3.61;100.00
19797;BME280;10058;57.654;12.044;2023-01-28T02:52:18;101759.97;;;3.63;100.00
19797;BME280;10058;57.654;12.044;2023-01-28T02:55:12;101749.69;;;3.66;100.00
19797;BME280;10058;57.654;12.044;2023-01-28T02:57:42;101749.69;;;3.66;100.00
19797;BME280;10058;57.654;12.044;2023-01-28T03:05:30;101741.97;;;3.67;100.00
19797;BME280;10058;57.654;12.044;2023-01-28T03:07:57;101735.69;;;3.77;100.00
19797;BME280;10058;57.654;12.044;2023-01-28T03:10:24;101742.88;;;3.68;100.00
19797;BME280;10058;57.654;12.044;2023-01-28T03:12:50;101727.41;;;3.71;100.00
19797;BME280;10058;57.654;12.044;2023-01-28T03:15:40;101739.47;;;3.69;100.00
19797;BME280;10058;57.654;12.044;2023-01-28T03:18:27;101734.22;;;3.69;100.00
19797;BME280;10058;57.654;12.044;2023-01-28T03:21:14;101727.16;;;3.79;100.00
19797;BME280;10058;57.654;12.044;2023-01-28T03:27:12;101727.63;;;3.74;100.00
19797;BME280;10058;57.654;12.044;2023-01-28T03:29:58;101720.25;;;3.93;100.00
19797;BME280;10058;57.654;12.044;2023-01-28T03:32:43;101719.47;;;3.94;100.00
19797;BME280;10058;57.654;12.044;2023-01-28T03:35:28;101722.06;;;3.94;100.00
19797;BME280;10058;57.654;12.044;2023-01-28T03:38:13;101705.94;;;3.88;100.00
19797;BME280;10058;57.654;12.044;2023-01-28T03:40:50;101702.91;;;3.82;100.00
19797;BME280;10058;57.654;12.044;2023-01-28T03:43:15;101684.59;;;3.82;100.00
19797;BME280;10058;57.654;12.044;2023-01-28T03:45:40;101694.38;;;3.84;100.00
19797;BME280;10058;57.654;12.044;2023-01-28T03:48:06;101702.22;;;3.84;100.00
19797;BME280;10058;57.654;12.044;2023-01-28T03:50:31;101696.72;;;3.93;100.00
19797;BME280;10058;57.654;12.044;2023-01-28T03:52:57;101695.91;;;3.94;100.00
19797;BME280;10058;57.654;12.044;2023-01-28T03:55:36;101691.75;;;4.23;100.00
19797;BME280;10058;57.654;12.044;2023-01-28T03:58:01;101678.28;;;4.30;100.00
19797;BME280;10058;57.654;12.044;2023-01-28T04:00:26;101691.97;;;4.39;100.00
19797;BME280;10058;57.654;12.044;2023-01-28T04:02:52;101681.28;;;4.36;100.00
19797;BME280;10058;57.654;12.044;2023-01-28T04:05:17;101682.91;;;4.34;100.00
19797;BME280;10058;57.654;12.044;2023-01-28T04:07:44;101681.75;;;4.04;100.00
19797;BME280;10058;57.654;12.044;2023-01-28T04:10:09;101697.34;;;4.02;100.00
19797;BME280;10058;57.654;12.044;2023-01-28T04:12:34;101682.44;;;4.01;100.00
19797;BME280;10058;57.654;12.044;2023-01-28T04:15:01;101689.09;;;3.96;100.00
19797;BME280;10058;57.654;12.044;2023-01-28T04:17:39;101686.47;;;3.96;100.00
19797;BME280;10058;57.654;12.044;2023-01-28T04:20:04;101690.81;;;4.09;100.00
19797;BME280;10058;57.654;12.044;2023-01-28T04:22:29;101695.84;;;4.06;100.00
19797;BME280;10058;57.654;12.044;2023-01-28T04:24:54;101684.56;;;4.07;100.00
19797;BME280;10058;57.654;12.044;2023-01-28T04:27:19;101684.94;;;4.00;100.00
19797;BME280;10058;57.654;12.044;2023-01-28T04:29:45;101683.66;;;4.06;100.00
19797;BME280;10058;57.654;12.044;2023-01-28T04:32:10;101677.63;;;4.07;100.00
19797;BME280;10058;57.654;12.044;2023-01-28T04:34:35;101684.38;;;4.17;100.00
19797;BME280;10058;57.654;12.044;2023-01-28T04:37:00;101675.13;;;4.09;100.00
19797;BME280;10058;57.654;12.044;2023-01-28T04:39:25;101675.44;;;4.13;100.00
19797;BME280;10058;57.654;12.044;2023-01-28T04:41:50;101661.56;;;4.14;100.00
19797;BME280;10058;57.654;12.044;2023-01-28T04:44:16;101666.47;;;4.10;100.00
19797;BME280;10058;57.654;12.044;2023-01-28T04:46:41;101662.53;;;4.03;100.00
19797;BME280;10058;57.654;12.044;2023-01-28T04:49:06;101673.41;;;3.96;100.00
19797;BME280;10058;57.654;12.044;2023-01-28T04:51:31;101674.44;;;4.11;100.00
19797;BME280;10058;57.654;12.044;2023-01-28T04:53:56;101665.34;;;4.06;100.00
19797;BME280;10058;57.654;12.044;2023-01-28T04:56:22;101664.75;;;3.97;100.00
19797;BME280;10058;57.654;12.044;2023-01-28T04:58:47;101649.78;;;4.08;100.00
19797;BME280;10058;57.654;12.044;2023-01-28T05:01:12;101648.75;;;4.06;100.00
19797;BME280;10058;57.654;12.044;2023-01-28T05:03:37;101644.00;;;4.00;100.00
19797;BME280;10058;57.654;12.044;2023-01-28T05:06:02;101631.56;;;4.23;100.00
19797;BME280;10058;57.654;12.044;2023-01-28T05:08:29;101633.06;;;4.06;100.00
19797;BME280;10058;57.654;12.044;2023-01-28T05:10:54;101627.41;;;4.00;100.00
19797;BME280;10058;57.654;12.044;2023-01-28T05:13:19;101618.69;;;4.12;100.00
19797;BME280;10058;57.654;12.044;2023-01-28T05:15:49;101613.25;;;4.09;100.00
19797;BME280;10058;57.654;12.044;2023-01-28T05:18:14;101620.19;;;4.09;100.00
19797;BME280;10058;57.654;12.044;2023-01-28T05:20:40;101604.00;;;4.14;100.00
19797;BME280;10058;57.654;12.044;2023-01-28T05:23:05;101609.03;;;4.11;100.00
19797;BME280;10058;57.654;12.044;2023-01-28T05:25:30;101612.75;;;4.15;100.00
19797;BME280;10058;57.654;12.044;2023-01-28T05:27:55;101562.72;;;3.84;100.00
19797;BME280;10058;57.654;12.044;2023-01-28T05:30:20;101612.81;;;4.03;100.00
19797;BME280;10058;57.654;12.044;2023-01-28T05:32:46;101620.88;;;4.19;100.00
19797;BME280;10058;57.654;12.044;2023-01-28T05:35:11;101610.94;;;4.14;100.00
19797;BME280;10058;57.654;12.044;2023-01-28T05:37:36;101617.09;;;4.14;100.00
19797;BME280;10058;57.654;12.044;2023-01-28T05:40:01;101606.78;;;4.17;100.00
19797;BME280;10058;57.654;12.044;2023-01-28T05:42:27;101616.06;;;4.26;100.00
19797;BME280;10058;57.654;12.044;2023-01-28T05:44:52;101605.19;;;4.19;100.00
19797;BME280;10058;57.654;12.044;2023-01-28T05:47:17;101614.25;;;4.25;100.00
19797;BME280;10058;57.654;12.044;2023-01-28T05:49:42;101607.22;;;4.24;100.00
19797;BME280;10058;57.654;12.044;2023-01-28T05:52:07;101611.97;;;4.29;100.00
19797;BME280;10058;57.654;12.044;2023-01-28T05:54:32;101619.38;;;4.23;100.00
19797;BME280;10058;57.654;12.044;2023-01-28T05:56:58;101606.78;;;4.17;100.00
19797;BME280;10058;57.654;12.044;2023-01-28T05:59:23;101595.34;;;4.29;100.00
19797;BME280;10058;57.654;12.044;2023-01-28T06:01:48;101599.56;;;4.13;100.00
19797;BME280;10058;57.654;12.044;2023-01-28T06:04:13;101622.72;;;4.20;100.00
19797;BME280;10058;57.654;12.044;2023-01-28T06:06:38;101627.56;;;4.14;100.00
19797;BME280;10058;57.654;12.044;2023-01-28T06:09:04;101635.63;;;4.31;100.00
19797;BME280;10058;57.654;12.044;2023-01-28T06:11:29;101631.34;;;4.19;100.00
19797;BME280;10058;57.654;12.044;2023-01-28T06:13:54;101626.75;;;4.15;100.00
19797;BME280;10058;57.654;12.044;2023-01-28T06:16:19;101625.31;;;4.20;100.00
19797;BME280;10058;57.654;12.044;2023-01-28T06:18:44;101627.25;;;4.23;100.00
19797;BME280;10058;57.654;12.044;2023-01-28T06:21:10;101632.38;;;4.22;100.00
19797;BME280;10058;57.654;12.044;2023-01-28T06:23:35;101629.38;;;4.15;100.00
19797;BME280;10058;57.654;12.044;2023-01-28T06:26:00;101621.78;;;4.20;100.00
19797;BME280;10058;57.654;12.044;2023-01-28T06:28:25;101624.13;;;4.15;100.00
19797;BME280;10058;57.654;12.044;2023-01-28T06:30:51;101618.09;;;4.30;100.00
19797;BME280;10058;57.654;12.044;2023-01-28T06:33:16;101607.63;;;4.30;100.00
19797;BME280;10058;57.654;12.044;2023-01-28T06:35:42;101616.28;;;4.29;100.00
19797;BME280;10058;57.654;12.044;2023-01-28T06:38:08;101636.38;;;4.16;100.00
19797;BME280;10058;57.654;12.044;2023-01-28T06:40:33;101629.75;;;4.22;100.00
19797;BME280;10058;57.654;12.044;2023-01-28T06:42:58;101641.44;;;4.13;100.00
19797;BME280;10058;57.654;12.044;2023-01-28T06:45:23;101632.78;;;4.14;100.00
19797;BME280;10058;57.654;12.044;2023-01-28T06:47:48;101632.47;;;4.23;100.00
19797;BME280;10058;57.654;12.044;2023-01-28T06:50:14;101632.69;;;4.26;100.00
19797;BME280;10058;57.654;12.044;2023-01-28T06:52:39;101637.91;;;4.13;100.00
19797;BME280;10058;57.654;12.044;2023-01-28T06:55:05;101633.97;;;4.06;100.00
19797;BME280;10058;57.654;12.044;2023-01-28T06:57:31;101649.09;;;4.24;100.00
19797;BME280;10058;57.654;12.044;2023-01-28T06:59:56;101638.03;;;4.28;100.00
19797;BME280;10058;57.654;12.044;2023-01-28T07:02:21;101657.13;;;4.27;100.00
19797;BME280;10058;57.654;12.044;2023-01-28T07:04:46;101651.00;;;4.39;100.00
19797;BME280;10058;57.654;12.044;2023-01-28T07:07:11;101655.81;;;4.20;100.00
19797;BME280;10058;57.654;12.044;2023-01-28T07:09:37;101652.41;;;4.34;100.00
19797;BME280;10058;57.654;12.044;2023-01-28T07:12:02;101644.47;;;4.33;100.00
19797;BME280;10058;57.654;12.044;2023-01-28T07:14:29;101642.66;;;4.32;100.00
19797;BME280;10058;57.654;12.044;2023-01-28T07:16:54;101630.75;;;4.37;100.00
19797;BME280;10058;57.654;12.044;2023-01-28T07:19:19;101629.56;;;4.32;100.00
19797;BME280;10058;57.654;12.044;2023-01-28T07:21:44;101624.13;;;4.42;100.00
19797;BME280;10058;57.654;12.044;2023-01-28T07:24:10;101628.78;;;4.33;100.00
19797;BME280;10058;57.654;12.044;2023-01-28T07:26:35;101628.47;;;4.41;100.00
19797;BME280;10058;57.654;12.044;2023-01-28T07:29:00;101638.53;;;4.48;100.00
19797;BME280;10058;57.654;12.044;2023-01-28T07:31:25;101630.97;;;4.40;100.00
19797;BME280;10058;57.654;12.044;2023-01-28T07:33:50;101642.06;;;4.49;100.00
19797;BME280;10058;57.654;12.044;2023-01-28T07:36:15;101652.31;;;4.46;100.00
19797;BME280;10058;57.654;12.044;2023-01-28T07:38:41;101654.13;;;4.47;100.00
19797;BME280;10058;57.654;12.044;2023-01-28T07:41:06;101631.06;;;4.54;100.00
19797;BME280;10058;57.654;12.044;2023-01-28T07:43:31;101638.63;;;4.50;100.00
19797;BME280;10058;57.654;12.044;2023-01-28T07:46:00;101646.38;;;4.48;100.00
19797;BME280;10058;57.654;12.044;2023-01-28T07:48:25;101631.19;;;4.43;100.00
19797;BME280;10058;57.654;12.044;2023-01-28T07:50:51;101635.38;;;4.54;100.00
19797;BME280;10058;57.654;12.044;2023-01-28T07:53:16;101631.97;;;4.55;100.00
19797;BME280;10058;57.654;12.044;2023-01-28T07:55:41;101626.94;;;4.58;100.00
19797;BME280;10058;57.654;12.044;2023-01-28T07:58:07;101634.00;;;4.46;100.00
19797;BME280;10058;57.654;12.044;2023-01-28T08:00:33;101636.50;;;4.58;100.00
19797;BME280;10058;57.654;12.044;2023-01-28T08:03:00;101631.47;;;4.61;100.00
19797;BME280;10058;57.654;12.044;2023-01-28T08:05:25;101632.78;;;4.67;100.00
19797;BME280;10058;57.654;12.044;2023-01-28T08:07:53;101630.97;;;4.66;100.00
19797;BME280;10058;57.654;12.044;2023-01-28T08:10:19;101612.72;;;4.68;100.00
19797;BME280;10058;57.654;12.044;2023-01-28T08:12:54;101622.47;;;4.70;100.00
19797;BME280;10058;57.654;12.044;2023-01-28T08:15:20;101607.38;;;4.79;100.00
19797;BME280;10058;57.654;12.044;2023-01-28T08:17:45;101591.22;;;4.86;100.00
19797;BME280;10058;57.654;12.044;2023-01-28T08:20:10;101599.00;;;4.72;100.00
19797;BME280;10058;57.654;12.044;2023-01-28T08:22:36;101588.91;;;4.91;100.00
19797;BME280;10058;57.654;12.044;2023-01-28T08:25:01;101593.44;;;4.94;100.00
19797;BME280;10058;57.654;12.044;2023-01-28T08:27:26;101585.78;;;4.97;100.00
19797;BME280;10058;57.654;12.044;2023-01-28T08:29:51;101593.03;;;5.01;100.00
19797;BME280;10058;57.654;12.044;2023-01-28T08:32:16;101588.59;;;5.00;100.00
19797;BME280;10058;57.654;12.044;2023-01-28T08:34:42;101578.44;;;5.19;100.00
19797;BME280;10058;57.654;12.044;2023-01-28T08:37:07;101578.28;;;5.31;100.00
19797;BME280;10058;57.654;12.044;2023-01-28T08:39:32;101563.63;;;5.19;100.00
19797;BME280;10058;57.654;12.044;2023-01-28T08:41:57;101563.28;;;5.28;100.00
19797;BME280;10058;57.654;12.044;2023-01-28T08:44:22;101578.81;;;5.25;100.00
19797;BME280;10058;57.654;12.044;2023-01-28T08:46:47;101563.28;;;5.28;100.00
19797;BME280;10058;57.654;12.044;2023-01-28T08:49:13;101544.28;;;5.17;100.00
19797;BME280;10058;57.654;12.044;2023-01-28T08:51:38;101557.28;;;5.16;100.00
19797;BME280;10058;57.654;12.044;2023-01-28T08:54:03;101553.19;;;5.34;100.00
19797;BME280;10058;57.654;12.044;2023-01-28T08:56:28;101547.53;;;5.28;100.00
19797;BME280;10058;57.654;12.044;2023-01-28T08:58:54;101548.16;;;5.24;100.00
19797;BME280;10058;57.654;12.044;2023-01-28T09:01:19;101555.59;;;5.31;100.00
19797;BME280;10058;57.654;12.044;2023-01-28T09:03:44;101557.47;;;5.19;100.00
19797;BME280;10058;57.654;12.044;2023-01-28T09:06:10;101563.34;;;5.15;100.00
19797;BME280;10058;57.654;12.044;2023-01-28T09:08:35;101558.44;;;5.21;100.00
19797;BME280;10058;57.654;12.044;2023-01-28T09:11:00;101547.00;;;5.19;100.00
19797;BME280;10058;57.654;12.044;2023-01-28T09:13:25;101551.47;;;5.07;100.00
19797;BME280;10058;57.654;12.044;2023-01-28T09:15:51;101550.78;;;5.24;100.00
19797;BME280;10058;57.654;12.044;2023-01-28T09:18:16;101555.22;;;5.25;100.00
19797;BME280;10058;57.654;12.044;2023-01-28T09:20:42;101557.47;;;5.19;100.00
19797;BME280;10058;57.654;12.044;2023-01-28T09:23:07;101538.28;;;5.20;100.00
19797;BME280;10058;57.654;12.044;2023-01-28T09:25:33;101538.81;;;5.00;100.00
19797;BME280;10058;57.654;12.044;2023-01-28T09:28:00;101532.91;;;5.17;100.00
19797;BME280;10058;57.654;12.044;2023-01-28T09:30:25;101525.47;;;5.10;100.00
19797;BME280;10058;57.654;12.044;2023-01-28T09:32:50;101527.66;;;5.17;100.00
19797;BME280;10058;57.654;12.044;2023-01-28T09:35:16;101534.84;;;5.06;100.00
19797;BME280;10058;57.654;12.044;2023-01-28T09:37:42;101544.88;;;4.99;100.00
19797;BME280;10058;57.654;12.044;2023-01-28T09:40:09;101525.06;;;5.04;100.00
19797;BME280;10058;57.654;12.044;2023-01-28T09:42:43;101519.94;;;5.20;100.00
19797;BME280;10058;57.654;12.044;2023-01-28T09:45:23;101523.34;;;5.32;100.00
19797;BME280;10058;57.654;12.044;2023-01-28T09:47:56;101523.75;;;5.10;100.00
19797;BME280;10058;57.654;12.044;2023-01-28T09:50:33;101520.72;;;5.04;100.00
19797;BME280;10058;57.654;12.044;2023-01-28T09:53:01;101516.41;;;5.05;100.00
19797;BME280;10058;57.654;12.044;2023-01-28T09:55:30;101511.94;;;5.17;100.00
19797;BME280;10058;57.654;12.044;2023-01-28T09:57:56;101523.66;;;5.09;100.00
19797;BME280;10058;57.654;12.044;2023-01-28T10:10:27;101481.50;;;4.91;100.00
19797;BME280;10058;57.654;12.044;2023-01-28T10:13:06;101514.06;;;5.09;100.00
19797;BME280;10058;57.654;12.044;2023-01-28T10:18:07;101509.53;;;5.07;100.00
19797;BME280;10058;57.654;12.044;2023-01-28T10:20:35;101492.19;;;5.09;100.00
19797;BME280;10058;57.654;12.044;2023-01-28T10:23:13;101494.59;;;5.19;100.00
19797;BME280;10058;57.654;12.044;2023-01-28T10:25:41;101491.41;;;5.10;100.00
19797;BME280;10058;57.654;12.044;2023-01-28T10:28:19;101493.59;;;5.17;100.00
19797;BME280;10058;57.654;12.044;2023-01-28T10:30:45;101502.88;;;5.12;100.00
19797;BME280;10058;57.654;12.044;2023-01-28T10:35:51;101506.69;;;5.17;100.00
19797;BME280;10058;57.654;12.044;2023-01-28T10:38:19;101501.25;;;5.14;100.00
19797;BME280;10058;57.654;12.044;2023-01-28T10:40:45;101494.94;;;5.25;100.00
19797;BME280;10058;57.654;12.044;2023-01-28T10:43:20;101484.63;;;5.28;100.00
19797;BME280;10058;57.654;12.044;2023-01-28T10:50:49;101474.53;;;5.34;100.00
19797;BME280;10058;57.654;12.044;2023-01-28T10:53:15;101473.44;;;5.31;100.00
19797;BME280;10058;57.654;12.044;2023-01-28T10:55:51;101477.06;;;5.33;100.00
19797;BME280;10058;57.654;12.044;2023-01-28T10:58:22;101481.41;;;5.32;100.00
19797;BME280;10058;57.654;12.044;2023-01-28T11:00:51;101481.47;;;5.19;100.00
19797;BME280;10058;57.654;12.044;2023-01-28T11:03:17;101479.41;;;5.28;100.00
19797;BME280;10058;57.654;12.044;2023-01-28T11:05:49;101471.09;;;5.50;100.00
19797;BME280;10058;57.654;12.044;2023-01-28T11:08:15;101471.09;;;5.35;100.00
19797;BME280;10058;57.654;12.044;2023-01-28T11:10:42;101456.91;;;5.46;100.00
19797;BME280;10058;57.654;12.044;2023-01-28T11:13:26;101460.59;;;5.65;100.00
19797;BME280;10058;57.654;12.044;2023-01-28T11:16:02;101445.59;;;5.62;100.00
19797;BME280;10058;57.654;12.044;2023-01-28T11:18:38;101435.63;;;5.56;100.00
19797;BME280;10058;57.654;12.044;2023-01-28T11:21:05;101440.88;;;5.56;100.00
19797;BME280;10058;57.654;12.044;2023-01-28T11:23:31;101437.28;;;5.69;100.00
19797;BME280;10058;57.654;12.044;2023-01-28T11:28:29;101427.84;;;5.73;100.00
19797;BME280;10058;57.654;12.044;2023-01-28T11:30:56;101426.03;;;5.72;100.00
19797;BME280;10058;57.654;12.044;2023-01-28T11:33:24;101419.53;;;5.65;100.00
19797;BME280;10058;57.654;12.044;2023-01-28T11:35:57;101421.69;;;5.72;100.00
19797;BME280;10058;57.654;12.044;2023-01-28T11:38:27;101424.94;;;5.83;100.00
19797;BME280;10058;57.654;12.044;2023-01-28T11:40:53;101423.16;;;5.67;100.00
19797;BME280;10058;57.654;12.044;2023-01-28T11:43:23;101424.25;;;5.71;100.00
19797;BME280;10058;57.654;12.044;2023-01-28T11:46:06;101409.06;;;5.65;100.00
19797;BME280;10058;57.654;12.044;2023-01-28T11:48:42;101417.19;;;5.70;100.00
19797;BME280;10058;57.654;12.044;2023-01-28T11:54:43;101395.09;;;5.81;100.00
19797;BME280;10058;57.654;12.044;2023-01-28T12:01:56;101380.41;;;5.99;100.00
19797;BME280;10058;57.654;12.044;2023-01-28T12:12:35;101378.13;;;6.05;100.00
19797;BME280;10058;57.654;12.044;2023-01-28T12:31:17;101415.00;;;6.08;100.00
19797;BME280;10058;57.654;12.044;2023-01-28T12:36:32;101405.34;;;6.07;100.00
19797;BME280;10058;57.654;12.044;2023-01-28T12:41:43;101350.22;;;6.23;100.00
19797;BME280;10058;57.654;12.044;2023-01-28T12:44:16;101352.13;;;6.26;100.00
19797;BME280;10058;57.654;12.044;2023-01-28T12:46:52;101350.09;;;6.20;100.00
19797;BME280;10058;57.654;12.044;2023-01-28T12:49:34;101354.09;;;6.30;100.00
19797;BME280;10058;57.654;12.044;2023-01-28T12:56:54;101349.09;;;6.35;100.00
19797;BME280;10058;57.654;12.044;2023-01-28T12:59:31;101340.16;;;6.31;100.00
19797;BME280;10058;57.654;12.044;2023-01-28T13:04:41;101327.09;;;6.49;100.00
19797;BME280;10058;57.654;12.044;2023-01-28T13:07:12;101331.13;;;6.42;100.00
19797;BME280;10058;57.654;12.044;2023-01-28T13:09:42;101325.63;;;6.54;100.00
19797;BME280;10058;57.654;12.044;2023-01-28T13:12:09;101331.13;;;6.42;100.00
19797;BME280;10058;57.654;12.044;2023-01-28T13:14:35;101328.09;;;6.51;100.00
19797;BME280;10058;57.654;12.044;2023-01-28T13:17:07;101336.31;;;6.57;100.00
19797;BME280;10058;57.654;12.044;2023-01-28T13:19:37;101336.66;;;6.81;100.00
19797;BME280;10058;57.654;12.044;2023-01-28T13:22:22;101319.66;;;6.56;100.00
19797;BME280;10058;57.654;12.044;2023-01-28T13:24:49;101289.06;;;6.75;100.00
19797;BME280;10058;57.654;12.044;2023-01-28T13:27:20;101280.75;;;6.83;100.00
19797;BME280;10058;57.654;12.044;2023-01-28T13:29:46;101281.88;;;6.88;100.00
19797;BME280;10058;57.654;12.044;2023-01-28T13:32:26;101259.13;;;6.71;100.00
19797;BME280;10058;57.654;12.044;2023-01-28T13:34:56;101272.09;;;6.68;100.00
19797;BME280;10058;57.654;12.044;2023-01-28T13:37:38;101254.03;;;6.74;100.00
19797;BME280;10058;57.654;12.044;2023-01-28T13:42:33;101253.19;;;6.75;100.00
19797;BME280;10058;57.654;12.044;2023-01-28T13:47:42;101229.16;;;6.85;100.00
19797;BME280;10058;57.654;12.044;2023-01-28T13:50:15;101233.00;;;6.74;100.00
19797;BME280;10058;57.654;12.044;2023-01-28T14:18:42;101230.06;;;6.68;100.00
19797;BME280;10058;57.654;12.044;2023-01-28T14:21:10;101235.84;;;6.45;100.00
19797;BME280;10058;57.654;12.044;2023-01-28T14:23:36;101242.09;;;6.47;100.00
19797;BME280;10058;57.654;12.044;2023-01-28T14:26:06;101242.50;;;6.54;100.00
19797;BME280;10058;57.654;12.044;2023-01-28T14:31:04;101234.06;;;6.44;100.00
19797;BME280;10058;57.654;12.044;2023-01-28T14:33:30;101230.44;;;6.42;100.00
19797;BME280;10058;57.654;12.044;2023-01-28T14:35:56;101243.47;;;6.22;100.00
19797;BME280;10058;57.654;12.044;2023-01-28T14:38:22;101245.09;;;6.20;100.00
19797;BME280;10058;57.654;12.044;2023-01-28T14:40:49;101254.25;;;6.28;100.00
19797;BME280;10058;57.654;12.044;2023-01-28T14:43:17;101256.72;;;6.25;100.00